Macamic, Canada
Current Conditions -  °F | °C
As of 11:00 AM on Tuesday 21 Oct 2014 (Local Time) from CYUY Reporting Station
Overcast Overcast  
Wind Chill: 22°   Ceiling: 2100
Heat Index: 32°   Visibility: 15mi
Dew Point: 25°   Wind: 15mph
Humidity: 75%   Direction: 40°NE
Pressure: 30.22"   Gusts: 21mph
Location:  48.77°N, 79°W
Report Text: CYUY 211500Z 04013G18KT 15SM OVC021 00/M04 A3022 RMK SC8 SLP249
Loading
Personal Weather Stations






























Interactive Weather Map
Tropical Storm Tracking
New forecast layout! Learn more

10-Day Weather Forecast

Advertisements
Track Severe Weather on mobile